sensor_id;sensor_type;location;lat;lon;timestamp;pressure;altitude;pressure_sealevel;temperature;humidity
84617;BME280;74846;51.126;16.944;2024-01-30T00:02:26;101920.62;;;-0.49;67.00
84617;BME280;74846;51.126;16.944;2024-01-30T00:04:53;101918.27;;;-0.54;67.29
84617;BME280;74846;51.126;16.944;2024-01-30T00:07:21;101918.74;;;-0.58;67.34
84617;BME280;74846;51.126;16.944;2024-01-30T00:09:50;101917.18;;;-0.59;67.73
84617;BME280;74846;51.126;16.944;2024-01-30T00:12:18;101925.67;;;-0.57;68.02
84617;BME280;74846;51.126;16.944;2024-01-30T00:14:46;101917.42;;;-0.54;67.86
84617;BME280;74846;51.126;16.944;2024-01-30T00:17:14;101926.45;;;-0.51;67.60
84617;BME280;74846;51.126;16.944;2024-01-30T00:19:42;101926.05;;;-0.55;67.32
84617;BME280;74846;51.126;16.944;2024-01-30T00:22:10;101925.00;;;-0.56;67.31
84617;BME280;74846;51.126;16.944;2024-01-30T00:24:39;101924.92;;;-0.61;67.52
84617;BME280;74846;51.126;16.944;2024-01-30T00:27:08;101935.31;;;-0.59;67.53
84617;BME280;74846;51.126;16.944;2024-01-30T00:29:36;101935.28;;;-0.62;67.89
84617;BME280;74846;51.126;16.944;2024-01-30T00:32:04;101915.16;;;-0.79;68.36
84617;BME280;74846;51.126;16.944;2024-01-30T00:34:32;101931.92;;;-0.79;67.83
84617;BME280;74846;51.126;16.944;2024-01-30T00:37:00;101925.41;;;-0.86;68.16
84617;BME280;74846;51.126;16.944;2024-01-30T00:39:28;101929.64;;;-0.92;68.31
84617;BME280;74846;51.126;16.944;2024-01-30T00:41:56;101926.59;;;-0.99;68.24
84617;BME280;74846;51.126;16.944;2024-01-30T00:44:24;101928.28;;;-1.02;68.71
84617;BME280;74846;51.126;16.944;2024-01-30T00:46:52;101924.81;;;-1.02;68.66
84617;BME280;74846;51.126;16.944;2024-01-30T00:49:20;101927.27;;;-1.01;68.85
84617;BME280;74846;51.126;16.944;2024-01-30T00:51:48;101923.51;;;-0.98;68.67
84617;BME280;74846;51.126;16.944;2024-01-30T00:54:16;101925.80;;;-0.95;68.41
84617;BME280;74846;51.126;16.944;2024-01-30T00:56:45;101924.42;;;-0.96;68.29
84617;BME280;74846;51.126;16.944;2024-01-30T00:59:13;101925.45;;;-0.96;68.19
84617;BME280;74846;51.126;16.944;2024-01-30T01:01:41;101919.56;;;-0.97;67.79
84617;BME280;74846;51.126;16.944;2024-01-30T01:04:09;101911.51;;;-1.03;67.70
84617;BME280;74846;51.126;16.944;2024-01-30T01:06:38;101927.42;;;-1.02;67.82
84617;BME280;74846;51.126;16.944;2024-01-30T01:09:06;101928.69;;;-1.08;69.87
84617;BME280;74846;51.126;16.944;2024-01-30T01:11:34;101927.78;;;-1.11;69.45
84617;BME280;74846;51.126;16.944;2024-01-30T01:14:03;101920.25;;;-1.18;68.68
84617;BME280;74846;51.126;16.944;2024-01-30T01:16:33;101921.94;;;-1.20;68.29
84617;BME280;74846;51.126;16.944;2024-01-30T01:19:01;101923.82;;;-1.21;68.55
84617;BME280;74846;51.126;16.944;2024-01-30T01:21:29;101922.43;;;-1.21;69.03
84617;BME280;74846;51.126;16.944;2024-01-30T01:23:57;101921.94;;;-1.20;69.69
84617;BME280;74846;51.126;16.944;2024-01-30T01:26:25;101927.79;;;-1.21;70.03
84617;BME280;74846;51.126;16.944;2024-01-30T01:28:53;101921.27;;;-1.19;69.79
84617;BME280;74846;51.126;16.944;2024-01-30T01:31:21;101920.96;;;-1.16;69.05
84617;BME280;74846;51.126;16.944;2024-01-30T01:33:53;101919.75;;;-1.16;68.86
84617;BME280;74846;51.126;16.944;2024-01-30T01:36:21;101908.28;;;-1.21;69.02
84617;BME280;74846;51.126;16.944;2024-01-30T01:38:49;101912.65;;;-1.18;68.84
84617;BME280;74846;51.126;16.944;2024-01-30T01:41:17;101914.19;;;-1.19;69.35
84617;BME280;74846;51.126;16.944;2024-01-30T01:43:45;101916.20;;;-1.22;68.93
84617;BME280;74846;51.126;16.944;2024-01-30T01:46:13;101914.29;;;-1.24;69.56
84617;BME280;74846;51.126;16.944;2024-01-30T01:48:41;101913.30;;;-1.30;70.47
84617;BME280;74846;51.126;16.944;2024-01-30T01:51:11;101905.86;;;-1.42;70.25
84617;BME280;74846;51.126;16.944;2024-01-30T01:53:39;101912.40;;;-1.43;69.87
84617;BME280;74846;51.126;16.944;2024-01-30T01:56:07;101915.30;;;-1.44;69.59
84617;BME280;74846;51.126;16.944;2024-01-30T01:58:35;101910.31;;;-1.44;69.71
84617;BME280;74846;51.126;16.944;2024-01-30T02:01:04;101899.23;;;-1.45;69.92
84617;BME280;74846;51.126;16.944;2024-01-30T02:03:34;101901.13;;;-1.35;70.33
84617;BME280;74846;51.126;16.944;2024-01-30T02:06:02;101900.87;;;-1.31;71.12
84617;BME280;74846;51.126;16.944;2024-01-30T02:08:30;101900.02;;;-1.30;70.28
84617;BME280;74846;51.126;16.944;2024-01-30T02:10:59;101894.91;;;-1.26;69.85
84617;BME280;74846;51.126;16.944;2024-01-30T02:13:27;101886.98;;;-1.25;70.03
84617;BME280;74846;51.126;16.944;2024-01-30T02:15:56;101892.73;;;-1.22;70.02
84617;BME280;74846;51.126;16.944;2024-01-30T02:18:24;101891.13;;;-1.25;69.57
84617;BME280;74846;51.126;16.944;2024-01-30T02:20:54;101891.77;;;-1.29;70.23
84617;BME280;74846;51.126;16.944;2024-01-30T02:23:24;101885.79;;;-1.35;70.68
84617;BME280;74846;51.126;16.944;2024-01-30T02:25:55;101893.06;;;-1.33;70.65
84617;BME280;74846;51.126;16.944;2024-01-30T02:28:23;101894.02;;;-1.37;69.86
84617;BME280;74846;51.126;16.944;2024-01-30T02:30:51;101892.89;;;-1.44;70.35
84617;BME280;74846;51.126;16.944;2024-01-30T02:33:19;101896.65;;;-1.45;70.25
84617;BME280;74846;51.126;16.944;2024-01-30T02:35:49;101889.27;;;-1.44;70.06
84617;BME280;74846;51.126;16.944;2024-01-30T02:38:17;101887.55;;;-1.42;70.16
84617;BME280;74846;51.126;16.944;2024-01-30T02:40:45;101886.64;;;-1.35;70.50
84617;BME280;74846;51.126;16.944;2024-01-30T02:43:13;101884.13;;;-1.32;70.65
84617;BME280;74846;51.126;16.944;2024-01-30T02:45:41;101890.23;;;-1.27;70.34
84617;BME280;74846;51.126;16.944;2024-01-30T02:48:09;101895.67;;;-1.21;69.92
84617;BME280;74846;51.126;16.944;2024-01-30T02:50:37;101898.23;;;-1.24;70.10
84617;BME280;74846;51.126;16.944;2024-01-30T02:53:05;101872.85;;;-1.45;71.52
84617;BME280;74846;51.126;16.944;2024-01-30T02:55:33;101907.45;;;-1.39;71.09
84617;BME280;74846;51.126;16.944;2024-01-30T02:58:01;101905.18;;;-1.41;70.71
84617;BME280;74846;51.126;16.944;2024-01-30T03:00:29;101900.49;;;-1.42;70.01
84617;BME280;74846;51.126;16.944;2024-01-30T03:02:57;101900.14;;;-1.44;70.31
84617;BME280;74846;51.126;16.944;2024-01-30T03:05:25;101905.30;;;-1.43;70.19
84617;BME280;74846;51.126;16.944;2024-01-30T03:07:53;101902.26;;;-1.40;71.30
84617;BME280;74846;51.126;16.944;2024-01-30T03:10:21;101901.85;;;-1.44;71.13
84617;BME280;74846;51.126;16.944;2024-01-30T03:12:49;101901.70;;;-1.43;71.60
84617;BME280;74846;51.126;16.944;2024-01-30T03:15:17;101896.89;;;-1.41;71.55
84617;BME280;74846;51.126;16.944;2024-01-30T03:17:45;101902.90;;;-1.33;71.57
84617;BME280;74846;51.126;16.944;2024-01-30T03:20:13;101896.80;;;-1.26;71.60
84617;BME280;74846;51.126;16.944;2024-01-30T03:22:41;101902.19;;;-1.35;71.50
84617;BME280;74846;51.126;16.944;2024-01-30T03:25:09;101900.60;;;-1.36;70.85
84617;BME280;74846;51.126;16.944;2024-01-30T03:27:37;101890.19;;;-1.40;70.62
84617;BME280;74846;51.126;16.944;2024-01-30T03:30:06;101892.55;;;-1.42;70.74
84617;BME280;74846;51.126;16.944;2024-01-30T03:32:34;101895.14;;;-1.43;71.30
84617;BME280;74846;51.126;16.944;2024-01-30T03:35:02;101891.10;;;-1.47;71.19
84617;BME280;74846;51.126;16.944;2024-01-30T03:37:31;101875.89;;;-1.59;70.94
84617;BME280;74846;51.126;16.944;2024-01-30T03:39:58;101879.98;;;-1.62;71.02
84617;BME280;74846;51.126;16.944;2024-01-30T03:42:27;101879.86;;;-1.68;71.25
84617;BME280;74846;51.126;16.944;2024-01-30T03:44:56;101885.05;;;-1.67;70.96
84617;BME280;74846;51.126;16.944;2024-01-30T03:47:24;101881.21;;;-1.70;71.06
84617;BME280;74846;51.126;16.944;2024-01-30T03:49:52;101879.60;;;-1.74;71.79
84617;BME280;74846;51.126;16.944;2024-01-30T03:52:20;101879.01;;;-1.78;72.08
84617;BME280;74846;51.126;16.944;2024-01-30T03:54:49;101880.05;;;-1.77;71.75
84617;BME280;74846;51.126;16.944;2024-01-30T03:57:17;101880.94;;;-1.65;71.52
84617;BME280;74846;51.126;16.944;2024-01-30T03:59:45;101880.13;;;-1.62;71.50
84617;BME280;74846;51.126;16.944;2024-01-30T04:02:13;101876.75;;;-1.58;71.16
84617;BME280;74846;51.126;16.944;2024-01-30T04:04:41;101874.30;;;-1.61;71.58
84617;BME280;74846;51.126;16.944;2024-01-30T04:07:10;101881.17;;;-1.62;71.69
84617;BME280;74846;51.126;16.944;2024-01-30T04:09:38;101878.89;;;-1.65;71.10
84617;BME280;74846;51.126;16.944;2024-01-30T04:12:06;101884.26;;;-1.73;71.57
84617;BME280;74846;51.126;16.944;2024-01-30T04:14:34;101883.84;;;-1.78;71.29
84617;BME280;74846;51.126;16.944;2024-01-30T04:17:03;101880.12;;;-1.83;71.61
84617;BME280;74846;51.126;16.944;2024-01-30T04:19:31;101882.65;;;-1.85;71.14
84617;BME280;74846;51.126;16.944;2024-01-30T04:21:59;101877.17;;;-1.93;71.10
84617;BME280;74846;51.126;16.944;2024-01-30T04:24:27;101882.31;;;-1.94;71.23
84617;BME280;74846;51.126;16.944;2024-01-30T04:26:58;101878.84;;;-1.95;71.32
84617;BME280;74846;51.126;16.944;2024-01-30T04:29:26;101872.84;;;-1.94;71.78
84617;BME280;74846;51.126;16.944;2024-01-30T04:31:54;101876.50;;;-1.92;71.93
84617;BME280;74846;51.126;16.944;2024-01-30T04:34:22;101876.98;;;-1.93;72.10
84617;BME280;74846;51.126;16.944;2024-01-30T04:36:51;101883.39;;;-1.92;71.81
84617;BME280;74846;51.126;16.944;2024-01-30T04:39:18;101879.01;;;-1.95;72.34
84617;BME280;74846;51.126;16.944;2024-01-30T04:41:47;101883.52;;;-1.93;71.50
84617;BME280;74846;51.126;16.944;2024-01-30T04:44:16;101885.42;;;-1.94;71.38
84617;BME280;74846;51.126;16.944;2024-01-30T04:46:43;101885.59;;;-1.94;71.88
84617;BME280;74846;51.126;16.944;2024-01-30T04:49:12;101888.02;;;-2.02;71.75
84617;BME280;74846;51.126;16.944;2024-01-30T04:51:40;101891.33;;;-2.09;72.26
84617;BME280;74846;51.126;16.944;2024-01-30T04:54:08;101891.27;;;-2.13;71.84
84617;BME280;74846;51.126;16.944;2024-01-30T04:56:36;101888.56;;;-2.18;71.82
84617;BME280;74846;51.126;16.944;2024-01-30T04:59:04;101892.14;;;-2.20;72.71
84617;BME280;74846;51.126;16.944;2024-01-30T05:01:32;101883.45;;;-2.23;72.74
84617;BME280;74846;51.126;16.944;2024-01-30T05:04:00;101895.67;;;-2.16;72.66
84617;BME280;74846;51.126;16.944;2024-01-30T05:06:29;101890.52;;;-2.15;72.61
84617;BME280;74846;51.126;16.944;2024-01-30T05:08:57;101895.34;;;-2.15;72.70
84617;BME280;74846;51.126;16.944;2024-01-30T05:11:25;101895.79;;;-2.10;72.76
84617;BME280;74846;51.126;16.944;2024-01-30T05:13:53;101891.48;;;-2.09;72.60
84617;BME280;74846;51.126;16.944;2024-01-30T05:16:21;101891.84;;;-2.09;72.19
84617;BME280;74846;51.126;16.944;2024-01-30T05:18:50;101889.45;;;-2.09;71.99
84617;BME280;74846;51.126;16.944;2024-01-30T05:21:18;101887.39;;;-2.16;72.20
84617;BME280;74846;51.126;16.944;2024-01-30T05:23:46;101893.34;;;-2.20;72.03
84617;BME280;74846;51.126;16.944;2024-01-30T05:26:14;101884.02;;;-2.29;72.07
84617;BME280;74846;51.126;16.944;2024-01-30T05:28:42;101892.13;;;-2.29;72.19
84617;BME280;74846;51.126;16.944;2024-01-30T05:31:12;101883.03;;;-2.36;72.42
84617;BME280;74846;51.126;16.944;2024-01-30T05:33:40;101888.10;;;-2.32;72.39
84617;BME280;74846;51.126;16.944;2024-01-30T05:36:11;101882.38;;;-2.34;72.47
84617;BME280;74846;51.126;16.944;2024-01-30T05:38:40;101882.26;;;-2.31;72.73
84617;BME280;74846;51.126;16.944;2024-01-30T05:41:08;101888.35;;;-2.28;72.83
84617;BME280;74846;51.126;16.944;2024-01-30T05:43:36;101889.84;;;-2.23;73.24
84617;BME280;74846;51.126;16.944;2024-01-30T05:46:04;101898.13;;;-2.22;73.31
84617;BME280;74846;51.126;16.944;2024-01-30T05:48:32;101898.55;;;-2.18;73.04
84617;BME280;74846;51.126;16.944;2024-01-30T05:51:00;101897.63;;;-2.13;72.84
84617;BME280;74846;51.126;16.944;2024-01-30T05:53:28;101894.83;;;-2.15;72.60
84617;BME280;74846;51.126;16.944;2024-01-30T05:55:56;101898.41;;;-2.16;72.30
84617;BME280;74846;51.126;16.944;2024-01-30T05:58:24;101895.05;;;-2.21;72.23
84617;BME280;74846;51.126;16.944;2024-01-30T06:00:52;101900.25;;;-2.28;72.29
84617;BME280;74846;51.126;16.944;2024-01-30T06:03:20;101901.69;;;-2.33;72.70
84617;BME280;74846;51.126;16.944;2024-01-30T06:05:48;101895.41;;;-2.45;72.97
84617;BME280;74846;51.126;16.944;2024-01-30T06:08:17;101903.09;;;-2.48;73.12
84617;BME280;74846;51.126;16.944;2024-01-30T06:10:45;101893.34;;;-2.54;72.69
84617;BME280;74846;51.126;16.944;2024-01-30T06:13:13;101897.34;;;-2.43;72.89
84617;BME280;74846;51.126;16.944;2024-01-30T06:15:40;101897.67;;;-2.36;73.47
84617;BME280;74846;51.126;16.944;2024-01-30T06:18:09;101899.11;;;-2.33;73.65
84617;BME280;74846;51.126;16.944;2024-01-30T06:20:37;101901.29;;;-2.28;73.72
84617;BME280;74846;51.126;16.944;2024-01-30T06:23:05;101904.21;;;-2.20;73.68
84617;BME280;74846;51.126;16.944;2024-01-30T06:25:33;101903.39;;;-2.18;73.69
84617;BME280;74846;51.126;16.944;2024-01-30T06:28:01;101902.95;;;-2.14;73.25
84617;BME280;74846;51.126;16.944;2024-01-30T06:30:29;101894.20;;;-2.11;73.22
84617;BME280;74846;51.126;16.944;2024-01-30T06:32:57;101897.27;;;-2.06;72.98
84617;BME280;74846;51.126;16.944;2024-01-30T06:35:25;101900.76;;;-2.04;72.39
84617;BME280;74846;51.126;16.944;2024-01-30T06:37:53;101898.26;;;-2.07;72.79
84617;BME280;74846;51.126;16.944;2024-01-30T06:40:21;101901.17;;;-2.17;72.56
84617;BME280;74846;51.126;16.944;2024-01-30T06:42:50;101900.69;;;-2.23;73.07
84617;BME280;74846;51.126;16.944;2024-01-30T06:45:18;101898.42;;;-2.25;73.08
84617;BME280;74846;51.126;16.944;2024-01-30T06:47:46;101899.58;;;-2.27;72.99
84617;BME280;74846;51.126;16.944;2024-01-30T06:50:14;101902.95;;;-2.23;72.68
84617;BME280;74846;51.126;16.944;2024-01-30T06:52:42;101900.77;;;-2.20;73.32
84617;BME280;74846;51.126;16.944;2024-01-30T06:55:10;101899.25;;;-2.18;73.76
84617;BME280;74846;51.126;16.944;2024-01-30T06:57:38;101896.95;;;-2.12;73.74
84617;BME280;74846;51.126;16.944;2024-01-30T07:00:06;101883.73;;;-2.10;73.69
84617;BME280;74846;51.126;16.944;2024-01-30T07:02:34;101895.65;;;-1.91;73.67
84617;BME280;74846;51.126;16.944;2024-01-30T07:05:02;101888.11;;;-1.88;73.33
84617;BME280;74846;51.126;16.944;2024-01-30T07:07:31;101894.05;;;-1.75;72.89
84617;BME280;74846;51.126;16.944;2024-01-30T07:09:59;101897.92;;;-1.71;72.62
84617;BME280;74846;51.126;16.944;2024-01-30T07:12:27;101898.00;;;-1.67;72.73
84617;BME280;74846;51.126;16.944;2024-01-30T07:14:55;101896.26;;;-1.68;72.46
84617;BME280;74846;51.126;16.944;2024-01-30T07:17:24;101900.02;;;-1.70;72.81
84617;BME280;74846;51.126;16.944;2024-01-30T07:19:52;101898.98;;;-1.69;72.93
84617;BME280;74846;51.126;16.944;2024-01-30T07:22:20;101897.65;;;-1.67;73.13
84617;BME280;74846;51.126;16.944;2024-01-30T07:24:48;101896.30;;;-1.65;73.00
84617;BME280;74846;51.126;16.944;2024-01-30T07:27:17;101899.77;;;-1.63;72.54
84617;BME280;74846;51.126;16.944;2024-01-30T07:29:45;101902.18;;;-1.55;73.17
84617;BME280;74846;51.126;16.944;2024-01-30T07:32:13;101896.52;;;-1.52;73.35
84617;BME280;74846;51.126;16.944;2024-01-30T07:34:41;101903.01;;;-1.37;73.45
84617;BME280;74846;51.126;16.944;2024-01-30T07:37:29;101900.84;;;-1.22;73.43
84617;BME280;74846;51.126;16.944;2024-01-30T07:39:57;101916.59;;;-0.99;73.69
84617;BME280;74846;51.126;16.944;2024-01-30T07:42:25;101919.83;;;-0.79;73.69
84617;BME280;74846;51.126;16.944;2024-01-30T07:44:53;101916.43;;;-0.63;73.52
84617;BME280;74846;51.126;16.944;2024-01-30T07:47:21;101914.41;;;-0.48;73.25
84617;BME280;74846;51.126;16.944;2024-01-30T07:49:49;101909.88;;;-0.37;72.76
84617;BME280;74846;51.126;16.944;2024-01-30T07:52:18;101906.30;;;-0.20;72.43
84617;BME280;74846;51.126;16.944;2024-01-30T07:54:46;101910.28;;;-0.05;72.51
84617;BME280;74846;51.126;16.944;2024-01-30T07:57:14;101908.19;;;0.08;72.42
84617;BME280;74846;51.126;16.944;2024-01-30T07:59:43;101905.40;;;0.22;72.33
84617;BME280;74846;51.126;16.944;2024-01-30T08:02:13;101917.88;;;0.41;71.91
84617;BME280;74846;51.126;16.944;2024-01-30T08:04:41;101911.14;;;0.61;72.27
84617;BME280;74846;51.126;16.944;2024-01-30T08:07:09;101909.95;;;0.82;71.85
84617;BME280;74846;51.126;16.944;2024-01-30T08:09:37;101908.55;;;1.01;71.67
84617;BME280;74846;51.126;16.944;2024-01-30T08:12:06;101899.85;;;1.21;71.81
84617;BME280;74846;51.126;16.944;2024-01-30T08:14:34;101906.45;;;1.51;71.92
84617;BME280;74846;51.126;16.944;2024-01-30T08:17:02;101903.96;;;1.73;71.79
84617;BME280;74846;51.126;16.944;2024-01-30T08:19:30;101897.64;;;1.95;71.42
84617;BME280;74846;51.126;16.944;2024-01-30T08:21:58;101897.73;;;2.24;71.14
84617;BME280;74846;51.126;16.944;2024-01-30T08:24:26;101885.44;;;2.43;70.44
84617;BME280;74846;51.126;16.944;2024-01-30T08:26:54;101896.41;;;2.70;69.89
84617;BME280;74846;51.126;16.944;2024-01-30T08:29:22;101890.50;;;2.87;68.99
84617;BME280;74846;51.126;16.944;2024-01-30T08:31:50;101888.06;;;3.07;68.51
84617;BME280;74846;51.126;16.944;2024-01-30T08:34:18;101895.15;;;3.28;67.66
84617;BME280;74846;51.126;16.944;2024-01-30T08:36:46;101891.82;;;3.46;67.46
84617;BME280;74846;51.126;16.944;2024-01-30T08:39:15;101888.80;;;3.61;66.46
84617;BME280;74846;51.126;16.944;2024-01-30T08:41:43;101895.37;;;3.77;66.93
84617;BME280;74846;51.126;16.944;2024-01-30T08:44:11;101885.21;;;3.89;66.54
84617;BME280;74846;51.126;16.944;2024-01-30T08:46:39;101892.45;;;4.06;65.97
84617;BME280;74846;51.126;16.944;2024-01-30T08:49:08;101889.45;;;4.15;65.21
84617;BME280;74846;51.126;16.944;2024-01-30T08:51:36;101882.28;;;4.20;65.77
84617;BME280;74846;51.126;16.944;2024-01-30T08:54:04;101891.91;;;4.38;65.94
84617;BME280;74846;51.126;16.944;2024-01-30T08:56:32;101886.95;;;4.52;66.05
84617;BME280;74846;51.126;16.944;2024-01-30T08:59:00;101880.60;;;4.62;64.88
84617;BME280;74846;51.126;16.944;2024-01-30T09:01:28;101884.82;;;4.80;65.67
84617;BME280;74846;51.126;16.944;2024-01-30T09:03:56;101879.85;;;4.90;64.65
84617;BME280;74846;51.126;16.944;2024-01-30T09:06:24;101887.39;;;5.06;63.65
84617;BME280;74846;51.126;16.944;2024-01-30T09:08:55;101883.27;;;5.16;63.68
84617;BME280;74846;51.126;16.944;2024-01-30T09:11:25;101875.57;;;5.20;63.16
84617;BME280;74846;51.126;16.944;2024-01-30T09:13:53;101881.70;;;5.33;61.92
84617;BME280;74846;51.126;16.944;2024-01-30T09:16:22;101876.74;;;5.41;62.72
84617;BME280;74846;51.126;16.944;2024-01-30T09:18:50;101881.77;;;5.58;62.88
84617;BME280;74846;51.126;16.944;2024-01-30T09:21:18;101880.23;;;5.70;62.56
84617;BME280;74846;51.126;16.944;2024-01-30T09:23:46;101880.80;;;5.83;62.63
84617;BME280;74846;51.126;16.944;2024-01-30T09:26:14;101861.87;;;5.91;62.05
84617;BME280;74846;51.126;16.944;2024-01-30T09:28:41;101875.29;;;6.06;62.44
84617;BME280;74846;51.126;16.944;2024-01-30T09:31:11;101871.11;;;6.16;61.90
84617;BME280;74846;51.126;16.944;2024-01-30T09:33:39;101863.14;;;6.25;61.71
84617;BME280;74846;51.126;16.944;2024-01-30T09:36:08;101871.15;;;6.37;61.02
84617;BME280;74846;51.126;16.944;2024-01-30T09:38:36;101870.88;;;6.45;60.30
84617;BME280;74846;51.126;16.944;2024-01-30T09:41:07;101868.61;;;6.56;60.21
84617;BME280;74846;51.126;16.944;2024-01-30T09:43:38;101864.73;;;6.69;60.00
84617;BME280;74846;51.126;16.944;2024-01-30T09:46:11;101861.75;;;6.80;58.91
84617;BME280;74846;51.126;16.944;2024-01-30T09:48:46;101859.13;;;6.90;58.65
84617;BME280;74846;51.126;16.944;2024-01-30T09:51:16;101852.52;;;6.98;58.58
84617;BME280;74846;51.126;16.944;2024-01-30T09:53:45;101850.78;;;7.08;58.21
84617;BME280;74846;51.126;16.944;2024-01-30T09:56:14;101845.85;;;7.18;57.47
84617;BME280;74846;51.126;16.944;2024-01-30T09:58:42;101847.23;;;7.29;56.13
84617;BME280;74846;51.126;16.944;2024-01-30T10:01:09;101848.44;;;7.38;56.70
84617;BME280;74846;51.126;16.944;2024-01-30T10:03:38;101844.23;;;7.48;55.33
84617;BME280;74846;51.126;16.944;2024-01-30T10:06:07;101838.98;;;7.56;55.58
84617;BME280;74846;51.126;16.944;2024-01-30T10:08:35;101836.86;;;7.66;55.30
84617;BME280;74846;51.126;16.944;2024-01-30T10:11:04;101834.40;;;7.75;55.74
84617;BME280;74846;51.126;16.944;2024-01-30T10:13:32;101818.41;;;7.78;54.16
84617;BME280;74846;51.126;16.944;2024-01-30T10:16:00;101825.90;;;7.87;53.45
84617;BME280;74846;51.126;16.944;2024-01-30T10:18:30;101823.15;;;7.93;55.54
84617;BME280;74846;51.126;16.944;2024-01-30T10:20:59;101829.21;;;8.11;54.90
84617;BME280;74846;51.126;16.944;2024-01-30T10:23:27;101826.33;;;8.23;53.68
84617;BME280;74846;51.126;16.944;2024-01-30T10:26:07;101821.85;;;8.36;53.49
84617;BME280;74846;51.126;16.944;2024-01-30T10:28:35;101817.34;;;8.41;52.13
84617;BME280;74846;51.126;16.944;2024-01-30T10:31:03;101818.13;;;8.45;51.42
84617;BME280;74846;51.126;16.944;2024-01-30T10:33:33;101819.83;;;8.47;51.80
84617;BME280;74846;51.126;16.944;2024-01-30T10:36:03;101819.33;;;8.53;52.35
84617;BME280;74846;51.126;16.944;2024-01-30T10:38:33;101814.85;;;8.64;52.86
84617;BME280;74846;51.126;16.944;2024-01-30T10:41:01;101813.69;;;8.82;51.98
84617;BME280;74846;51.126;16.944;2024-01-30T10:43:32;101813.23;;;8.99;51.46
84617;BME280;74846;51.126;16.944;2024-01-30T10:46:10;101800.80;;;9.11;50.55
84617;BME280;74846;51.126;16.944;2024-01-30T10:48:42;101805.70;;;9.31;50.29
84617;BME280;74846;51.126;16.944;2024-01-30T10:51:13;101802.72;;;9.43;50.03
84617;BME280;74846;51.126;16.944;2024-01-30T10:53:43;101797.99;;;9.54;48.23
84617;BME280;74846;51.126;16.944;2024-01-30T10:56:14;101792.98;;;9.69;48.37
84617;BME280;74846;51.126;16.944;2024-01-30T10:58:44;101782.89;;;9.71;47.93
84617;BME280;74846;51.126;16.944;2024-01-30T11:01:12;101784.05;;;9.86;47.63
84617;BME280;74846;51.126;16.944;2024-01-30T11:03:41;101781.51;;;9.94;47.10
84617;BME280;74846;51.126;16.944;2024-01-30T11:06:14;101781.53;;;10.05;47.11
84617;BME280;74846;51.126;16.944;2024-01-30T11:08:45;101780.73;;;10.14;47.36
84617;BME280;74846;51.126;16.944;2024-01-30T11:11:16;101772.85;;;10.24;46.59
84617;BME280;74846;51.126;16.944;2024-01-30T11:13:45;101770.69;;;10.31;45.61
84617;BME280;74846;51.126;16.944;2024-01-30T11:16:13;101774.44;;;10.35;45.56
84617;BME280;74846;51.126;16.944;2024-01-30T11:18:41;101771.64;;;10.35;45.43
84617;BME280;74846;51.126;16.944;2024-01-30T11:21:13;101768.31;;;10.44;45.54
84617;BME280;74846;51.126;16.944;2024-01-30T11:23:42;101766.46;;;10.58;45.67
84617;BME280;74846;51.126;16.944;2024-01-30T11:26:10;101764.10;;;10.70;44.89
84617;BME280;74846;51.126;16.944;2024-01-30T11:28:39;101758.65;;;10.75;44.60
84617;BME280;74846;51.126;16.944;2024-01-30T11:31:07;101757.70;;;10.72;44.32
84617;BME280;74846;51.126;16.944;2024-01-30T11:33:36;101759.06;;;10.63;43.51
84617;BME280;74846;51.126;16.944;2024-01-30T11:36:04;101755.09;;;10.56;44.16
84617;BME280;74846;51.126;16.944;2024-01-30T11:38:34;101742.97;;;10.40;44.64
84617;BME280;74846;51.126;16.944;2024-01-30T11:41:03;101747.46;;;10.37;45.12
84617;BME280;74846;51.126;16.944;2024-01-30T11:43:32;101744.80;;;10.32;44.26
84617;BME280;74846;51.126;16.944;2024-01-30T11:46:01;101746.03;;;10.27;45.51
84617;BME280;74846;51.126;16.944;2024-01-30T11:48:30;101741.80;;;10.28;44.82
84617;BME280;74846;51.126;16.944;2024-01-30T11:50:59;101741.09;;;10.27;45.79
84617;BME280;74846;51.126;16.944;2024-01-30T11:53:27;101735.65;;;10.22;45.67
84617;BME280;74846;51.126;16.944;2024-01-30T11:55:55;101733.07;;;10.15;45.79
84617;BME280;74846;51.126;16.944;2024-01-30T11:58:25;101725.36;;;10.08;46.13
84617;BME280;74846;51.126;16.944;2024-01-30T12:00:55;101725.57;;;10.01;45.01
84617;BME280;74846;51.126;16.944;2024-01-30T12:03:24;101721.89;;;10.01;45.30
84617;BME280;74846;51.126;16.944;2024-01-30T12:05:56;101718.70;;;10.02;45.74
84617;BME280;74846;51.126;16.944;2024-01-30T12:08:26;101711.88;;;10.01;46.16
84617;BME280;74846;51.126;16.944;2024-01-30T12:10:58;101714.69;;;10.06;45.80
84617;BME280;74846;51.126;16.944;2024-01-30T12:13:28;101716.84;;;10.05;45.80
84617;BME280;74846;51.126;16.944;2024-01-30T12:16:00;101711.50;;;10.07;45.66
84617;BME280;74846;51.126;16.944;2024-01-30T12:18:29;101708.27;;;10.10;45.33
84617;BME280;74846;51.126;16.944;2024-01-30T12:21:00;101705.21;;;10.17;45.84
84617;BME280;74846;51.126;16.944;2024-01-30T12:23:29;101702.52;;;10.30;46.01
84617;BME280;74846;51.126;16.944;2024-01-30T12:25:57;101699.39;;;10.44;45.07
84617;BME280;74846;51.126;16.944;2024-01-30T12:28:26;101697.10;;;10.64;45.28
84617;BME280;74846;51.126;16.944;2024-01-30T12:31:01;101688.33;;;10.78;44.54
84617;BME280;74846;51.126;16.944;2024-01-30T12:33:31;101682.49;;;10.89;43.83
84617;BME280;74846;51.126;16.944;2024-01-30T12:36:02;101681.27;;;11.03;44.36
84617;BME280;74846;51.126;16.944;2024-01-30T12:38:31;101677.95;;;11.12;43.04
84617;BME280;74846;51.126;16.944;2024-01-30T12:40:59;101674.31;;;11.19;43.82
84617;BME280;74846;51.126;16.944;2024-01-30T12:43:29;101672.08;;;11.22;43.62
84617;BME280;74846;51.126;16.944;2024-01-30T12:46:05;101670.27;;;11.14;43.07
84617;BME280;74846;51.126;16.944;2024-01-30T12:48:34;101670.37;;;11.07;43.31
84617;BME280;74846;51.126;16.944;2024-01-30T12:51:02;101667.52;;;10.99;42.98